Time;durP1;ratioP1;P1;durP2;ratioP2;P2;SDS_P1;SDS_P2;PMS_P1;PMS_P2;Temp;Humidity;BMP_temperature;BMP_pressure;BME280_temperature;BME280_humidity;BME280_pressure;Samples;Min_cycle;Max_cycle;Signal;HPM_P1;HPM_P2
2022/12/23 00:02:03;;;;;;;8.45;3.47;;;;;;;10.48;100.00;98673.16;12134492;19;20006;-79
2022/12/23 00:06:13;;;;;;;10.38;3.35;;;;;;;10.48;100.00;98675.94;12156538;19;20014;-79
2022/12/23 00:10:15;;;;;;;8.85;3.15;;;;;;;10.46;100.00;98686.38;12159249;19;20350;-77
2022/12/23 00:18:37;;;;;;;10.45;3.55;;;;;;;10.49;100.00;98681.16;12162005;19;19998;-77
2022/12/23 00:27:00;;;;;;;16.63;3.63;;;;;;;10.54;100.00;98676.75;12170136;19;20040;-79
2022/12/23 00:31:04;;;;;;;10.82;3.60;;;;;;;10.58;100.00;98672.31;12164876;19;20022;-78
2022/12/23 00:35:06;;;;;;;7.13;3.17;;;;;;;10.60;100.00;98667.38;12125168;19;20015;-78
2022/12/23 00:43:30;;;;;;;10.23;3.28;;;;;;;10.63;100.00;98661.31;12124971;19;20050;-77
2022/12/23 00:51:52;;;;;;;7.75;3.10;;;;;;;10.63;100.00;98661.31;12157940;19;20002;-77
2022/12/23 00:55:54;;;;;;;8.70;3.28;;;;;;;10.64;100.00;98666.53;12133607;19;20022;-77
2022/12/23 00:59:55;;;;;;;7.43;3.35;;;;;;;10.64;100.00;98672.03;12150106;19;20014;-77
2022/12/23 01:08:17;;;;;;;9.80;4.00;;;;;;;10.66;100.00;98674.53;12127718;19;20474;-77
2022/12/23 01:12:22;;;;;;;12.20;4.00;;;;;;;10.64;100.00;98677.53;12145281;19;20018;-77
2022/12/23 01:16:23;;;;;;;13.32;3.75;;;;;;;10.68;100.00;98680.59;12179328;19;20002;-77
2022/12/23 01:20:25;;;;;;;8.82;4.70;;;;;;;10.67;100.00;98695.44;12182686;19;19999;-78
2022/12/23 01:24:28;;;;;;;14.73;5.50;;;;;;;10.66;100.00;98696.56;12148699;19;20043;-78
2022/12/23 01:28:31;;;;;;;11.88;4.85;;;;;;;10.67;100.00;98685.25;12130709;19;20006;-78
2022/12/23 01:32:33;;;;;;;10.98;6.53;;;;;;;10.64;100.00;98696.00;12155321;19;20442;-78
2022/12/23 01:36:34;;;;;;;15.80;7.40;;;;;;;10.64;100.00;98698.75;12147548;19;20010;-78
2022/12/23 01:40:38;;;;;;;16.17;7.70;;;;;;;10.65;100.00;98706.75;12125040;19;20026;-77
2022/12/23 01:44:46;;;;;;;20.42;9.15;;;;;;;10.64;100.00;98712.53;12137075;19;20006;-77
2022/12/23 01:48:50;;;;;;;22.70;10.38;;;;;;;10.63;100.00;98728.25;12147166;19;20703;-77
2022/12/23 01:53:07;;;;;;;29.08;12.60;;;;;;;10.61;100.00;98726.88;12130050;19;20002;-78
2022/12/23 01:57:09;;;;;;;26.02;12.73;;;;;;;10.60;100.00;98731.56;12146294;19;21149;-77
2022/12/23 02:05:33;;;;;;;23.73;11.73;;;;;;;10.58;100.00;98739.25;12121658;19;20014;-77
2022/12/23 02:09:37;;;;;;;25.17;11.32;;;;;;;10.59;100.00;98740.09;12144707;19;20011;-77
2022/12/23 02:18:29;;;;;;;26.58;12.20;;;;;;;10.59;100.00;98749.19;12147738;19;20583;-78
2022/12/23 02:22:44;;;;;;;25.67;12.15;;;;;;;10.60;100.00;98761.03;12131472;19;20010;-78
2022/12/23 02:27:03;;;;;;;21.48;11.50;;;;;;;10.60;100.00;98778.38;12150720;19;20015;-77
2022/12/23 02:31:12;;;;;;;26.90;11.13;;;;;;;10.61;100.00;98781.97;12156974;19;20011;-76
2022/12/23 02:35:42;;;;;;;32.88;12.45;;;;;;;10.64;100.00;98784.16;12158906;19;20011;-76
2022/12/23 02:39:53;;;;;;;24.92;11.23;;;;;;;10.64;100.00;98792.44;12169984;19;20484;-78
2022/12/23 02:43:58;;;;;;;31.15;13.20;;;;;;;10.66;100.00;98793.00;12149825;19;20014;-77
2022/12/23 02:48:07;;;;;;;21.92;10.55;;;;;;;10.67;100.00;98797.38;12174145;19;20006;-77
2022/12/23 02:52:14;;;;;;;19.92;10.13;;;;;;;10.67;100.00;98802.91;12174017;19;20447;-77
2022/12/23 02:56:18;;;;;;;21.48;9.57;;;;;;;10.63;100.00;98799.88;12140196;19;20010;-78
2022/12/23 03:00:20;;;;;;;22.13;9.98;;;;;;;10.61;100.00;98812.25;12176664;19;20018;-77
2022/12/23 03:04:22;;;;;;;27.50;10.05;;;;;;;10.62;100.00;98817.50;12195647;19;20010;-78
2022/12/23 03:08:38;;;;;;;25.75;11.05;;;;;;;10.66;100.00;98824.13;12181394;19;20353;-77
2022/12/23 03:12:57;;;;;;;24.73;10.23;;;;;;;10.71;100.00;98831.56;12197279;19;20007;-77
2022/12/23 03:17:10;;;;;;;188.93;26.50;;;;;;;10.63;100.00;98834.88;12172712;19;20007;-79
2022/12/23 03:21:33;;;;;;;37.83;14.38;;;;;;;10.57;100.00;98842.28;12198769;19;20007;-79
2022/12/23 03:25:41;;;;;;;31.33;12.45;;;;;;;10.51;100.00;98857.16;12172664;19;20046;-78
2022/12/23 03:29:57;;;;;;;35.47;14.07;;;;;;;10.51;100.00;98854.41;12197615;19;20011;-78
2022/12/23 03:34:05;;;;;;;53.05;17.00;;;;;;;10.52;100.00;98856.06;12199654;19;19998;-79
2022/12/23 03:38:09;;;;;;;46.88;14.27;;;;;;;10.52;100.00;98867.06;12175043;19;20108;-78
2022/12/23 03:42:21;;;;;;;162.63;24.45;;;;;;;10.53;100.00;98859.63;12196793;19;21176;-78
2022/12/23 03:46:29;;;;;;;65.82;14.85;;;;;;;10.52;100.00;98867.06;12194239;19;20010;-78
2022/12/23 03:50:34;;;;;;;195.00;29.50;;;;;;;10.54;100.00;98873.16;12178315;19;20392;-78
2022/12/23 03:54:42;;;;;;;82.40;15.50;;;;;;;10.50;100.00;98885.81;12198144;19;20348;-78
2022/12/23 03:58:55;;;;;;;68.78;13.95;;;;;;;10.45;100.00;98886.63;12175472;19;20015;-78
2022/12/23 04:03:09;;;;;;;44.42;11.38;;;;;;;10.43;100.00;98886.06;12196915;19;20002;-77
2022/12/23 04:07:22;;;;;;;56.05;12.10;;;;;;;10.38;100.00;98893.47;12193780;19;20003;-78
2022/12/23 04:11:24;;;;;;;33.20;10.02;;;;;;;10.28;100.00;98902.53;12174095;19;20058;-79
2022/12/23 04:15:28;;;;;;;23.00;8.52;;;;;;;10.16;100.00;98912.91;12193652;19;20013;-77
2022/12/23 04:19:29;;;;;;;25.70;8.30;;;;;;;10.06;100.00;98923.91;12175675;19;20097;-78
2022/12/23 04:23:31;;;;;;;20.77;7.90;;;;;;;9.95;100.00;98917.50;12189787;19;20021;-77
2022/12/23 04:27:33;;;;;;;20.48;7.53;;;;;;;9.86;100.00;98924.63;12185118;19;20432;-77
2022/12/23 04:31:34;;;;;;;20.80;8.02;;;;;;;9.72;100.00;98918.75;12168569;19;20013;-79
2022/12/23 04:35:36;;;;;;;20.67;7.85;;;;;;;9.63;100.00;98898.34;12191080;19;20035;-78
2022/12/23 04:39:38;;;;;;;14.48;6.43;;;;;;;9.52;100.00;98913.97;12188905;19;20416;-77
2022/12/23 04:43:39;;;;;;;16.77;6.78;;;;;;;9.47;100.00;98924.94;12148223;19;20038;-77
2022/12/23 04:47:41;;;;;;;16.80;6.18;;;;;;;9.52;100.00;98927.72;12162268;19;20010;-77
2022/12/23 04:51:42;;;;;;;13.63;5.90;;;;;;;9.60;100.00;98913.44;12165407;19;20011;-77
2022/12/23 04:55:49;;;;;;;12.60;4.57;;;;;;;9.71;100.00;98908.84;12138317;19;20063;-77
2022/12/23 04:59:51;;;;;;;11.68;4.40;;;;;;;9.79;100.00;98928.44;12165355;19;20010;-77
2022/12/23 05:03:53;;;;;;;8.57;4.18;;;;;;;9.80;100.00;98924.56;12162838;19;20499;-77
2022/12/23 05:08:02;;;;;;;9.32;3.65;;;;;;;9.83;100.00;98928.72;12142212;19;20373;-77
2022/12/23 05:12:03;;;;;;;8.57;3.50;;;;;;;9.89;100.00;98933.16;12162928;19;20013;-77
2022/12/23 05:16:05;;;;;;;7.75;3.00;;;;;;;9.94;100.00;98926.88;12164684;19;20006;-77
2022/12/23 05:20:08;;;;;;;7.30;3.00;;;;;;;10.00;100.00;98925.81;12145104;19;20002;-78
2022/12/23 05:24:09;;;;;;;9.35;3.17;;;;;;;10.02;100.00;98927.19;12166419;19;20048;-78
2022/12/23 05:28:12;;;;;;;8.60;2.85;;;;;;;10.01;100.00;98921.94;12166916;19;20007;-76
2022/12/23 05:32:14;;;;;;;6.18;2.92;;;;;;;9.91;100.00;98927.41;12147104;19;20334;-77
2022/12/23 05:36:15;;;;;;;5.57;2.80;;;;;;;9.77;100.00;98930.63;12176508;19;20003;-76
2022/12/23 05:40:17;;;;;;;5.63;2.35;;;;;;;9.65;100.00;98926.41;12221922;19;20029;-76
2022/12/23 05:44:25;;;;;;;5.63;2.95;;;;;;;9.62;100.00;98932.44;12197476;19;19999;-76
2022/12/23 05:48:26;;;;;;;4.88;2.25;;;;;;;9.75;100.00;98934.72;12174737;19;20027;-76
2022/12/23 05:52:28;;;;;;;4.40;2.10;;;;;;;9.85;100.00;98925.72;12143587;19;20007;-76
2022/12/23 05:56:30;;;;;;;4.82;2.22;;;;;;;9.90;100.00;98922.97;12168153;19;20027;-76
2022/12/23 06:00:33;;;;;;;;;;;;;;;9.95;100.00;98921.09;12223799;19;20019;-76
2022/12/23 06:04:34;;;;;;;3.08;1.60;;;;;;;10.04;100.00;98933.22;12172888;19;21255;-77
2022/12/23 06:08:36;;;;;;;4.75;1.58;;;;;;;10.13;100.00;98929.97;12177303;19;20195;-77
2022/12/23 06:12:38;;;;;;;3.20;1.50;;;;;;;10.17;100.00;98933.84;12179643;19;21214;-78
2022/12/23 06:16:39;;;;;;;4.82;1.90;;;;;;;10.23;100.00;98935.50;12164124;19;20002;-77
2022/12/23 06:20:45;;;;;;;3.95;1.90;;;;;;;10.25;100.00;98927.81;12188365;19;19999;-78
2022/12/23 06:24:47;;;;;;;3.50;1.67;;;;;;;10.31;100.00;98926.78;12182686;19;20047;-76
2022/12/23 06:28:48;;;;;;;3.10;1.50;;;;;;;10.35;100.00;98938.94;12167370;19;20011;-78
2022/12/23 06:32:50;;;;;;;5.10;1.80;;;;;;;10.40;100.00;98946.38;12183343;19;20010;-77
2022/12/23 06:36:52;;;;;;;5.70;2.10;;;;;;;10.46;100.00;98956.28;12175488;19;20512;-77
2022/12/23 06:40:53;;;;;;;3.78;2.17;;;;;;;10.49;100.00;98955.75;12160465;19;20010;-77
2022/12/23 06:44:55;;;;;;;7.35;2.08;;;;;;;10.51;100.00;98959.09;12175625;19;20006;-77
2022/12/23 06:48:57;;;;;;;5.15;2.47;;;;;;;10.53;100.00;98964.31;12179924;19;20006;-77
2022/12/23 06:52:58;;;;;;;4.70;2.22;;;;;;;10.51;100.00;98961.00;12158617;19;20010;-77
2022/12/23 06:57:00;;;;;;;7.35;2.35;;;;;;;10.53;100.00;98965.16;12178766;19;19998;-77
2022/12/23 07:01:02;;;;;;;4.70;1.90;;;;;;;10.53;100.00;98972.56;12180379;19;20010;-76
2022/12/23 07:05:05;;;;;;;5.75;2.30;;;;;;;10.56;100.00;98972.03;12159235;19;20085;-77
2022/12/23 07:09:06;;;;;;;4.55;2.00;;;;;;;10.56;100.00;98972.03;12180193;19;20035;-77
2022/12/23 07:13:08;;;;;;;5.43;2.20;;;;;;;10.59;100.00;98965.97;12179536;19;20803;-77
2022/12/23 07:17:10;;;;;;;5.22;2.03;;;;;;;10.59;100.00;98955.81;12156152;19;20067;-78
2022/12/23 07:21:12;;;;;;;3.37;1.80;;;;;;;10.62;100.00;98952.50;12165365;19;21895;-77
2022/12/23 07:25:27;;;;;;;5.03;1.88;;;;;;;10.71;100.00;98953.63;12166442;19;20460;-77
2022/12/23 07:29:28;;;;;;;3.05;1.63;;;;;;;10.78;100.00;98949.78;12146723;19;20039;-78
2022/12/23 07:33:30;;;;;;;3.55;1.77;;;;;;;10.83;100.00;98950.63;12164510;19;20006;-77
2022/12/23 07:37:31;;;;;;;4.50;2.00;;;;;;;10.87;100.00;98951.72;12145167;19;20010;-77
2022/12/23 07:41:33;;;;;;;3.97;1.70;;;;;;;10.89;100.00;98982.63;12167604;19;20034;-77
2022/12/23 07:45:39;;;;;;;3.20;1.55;;;;;;;10.93;100.00;98993.91;12172568;19;20010;-78
2022/12/23 07:49:41;;;;;;;6.03;2.10;;;;;;;11.00;100.00;98983.44;12142147;19;20006;-77
2022/12/23 07:53:47;;;;;;;4.82;1.95;;;;;;;11.06;100.00;98987.03;12155014;19;20547;-77
2022/12/23 07:57:50;;;;;;;4.68;1.98;;;;;;;11.12;100.00;98992.31;12168017;19;20003;-77
2022/12/23 08:01:52;;;;;;;3.13;1.80;;;;;;;11.18;100.00;99007.75;12147963;19;20075;-77
2022/12/23 08:05:59;;;;;;;3.55;1.88;;;;;;;11.21;100.00;99006.34;12161772;19;20567;-78
2022/12/23 08:10:02;;;;;;;3.05;1.55;;;;;;;11.26;100.00;98997.28;12150505;19;20028;-77
2022/12/23 08:14:06;;;;;;;2.80;1.77;;;;;;;11.25;100.00;98987.38;12140725;19;20010;-77
2022/12/23 08:18:08;;;;;;;4.82;1.90;;;;;;;11.25;100.00;98981.84;12165717;19;20014;-78
2022/12/23 08:22:09;;;;;;;3.78;1.88;;;;;;;11.29;100.00;98977.44;12171739;19;20088;-78
2022/12/23 08:26:18;;;;;;;4.32;2.20;;;;;;;11.32;100.00;98968.59;12151342;19;21519;-78
2022/12/23 08:30:20;;;;;;;3.75;1.88;;;;;;;11.33;100.00;98962.81;12172513;19;20026;-78
2022/12/23 08:34:22;;;;;;;4.25;2.13;;;;;;;11.38;100.00;98967.50;12197832;19;20310;-77
2022/12/23 08:38:24;;;;;;;3.83;2.15;;;;;;;11.47;100.00;98959.50;12177882;19;20082;-77
2022/12/23 08:42:25;;;;;;;3.97;2.30;;;;;;;11.51;100.00;98969.72;12178924;19;19999;-79
2022/12/23 08:46:27;;;;;;;3.22;1.98;;;;;;;11.56;100.00;98974.38;12177045;19;19999;-79
2022/12/23 08:50:29;;;;;;;4.17;1.80;;;;;;;11.60;100.00;98983.75;12155219;19;20002;-79
2022/12/23 08:54:31;;;;;;;5.15;2.40;;;;;;;11.66;100.00;98995.63;12173483;19;20018;-78
2022/12/23 08:58:37;;;;;;;4.32;2.28;;;;;;;11.68;100.00;99009.97;12146015;19;21061;-80
2022/12/23 09:02:38;;;;;;;4.07;2.20;;;;;;;11.65;100.00;99005.84;12171082;19;20006;-79
2022/12/23 09:06:41;;;;;;;4.13;2.20;;;;;;;11.69;100.00;98998.69;12168660;19;20007;-79
2022/12/23 09:10:43;;;;;;;5.18;2.17;;;;;;;11.80;100.00;99002.25;12149727;19;20495;-81
2022/12/23 09:14:46;;;;;;;5.07;3.00;;;;;;;11.83;100.00;99008.03;12165742;19;20598;-80
2022/12/23 09:18:48;;;;;;;6.35;2.75;;;;;;;11.88;100.00;98995.38;12169946;19;20006;-80
2022/12/23 09:22:50;;;;;;;8.70;3.05;;;;;;;11.86;100.00;99004.75;12148404;19;20342;-80
2022/12/23 09:26:51;;;;;;;3.70;2.20;;;;;;;11.84;100.00;98997.84;12170489;19;20006;-81
2022/12/23 09:30:53;;;;;;;3.63;2.00;;;;;;;11.88;100.00;98998.97;12169398;19;20078;-80
2022/12/23 09:34:56;;;;;;;2.90;1.80;;;;;;;11.90;100.00;98993.13;12149721;19;20006;-80
2022/12/23 09:38:58;;;;;;;;;;;;;;;11.89;100.00;98994.25;12170440;19;20006;-80
2022/12/23 09:43:28;;;;;;;3.30;1.65;;;;;;;11.98;100.00;98987.06;12167395;19;20286;-80
2022/12/23 09:47:34;;;;;;;3.33;1.60;;;;;;;12.07;100.00;98985.38;12144975;19;20019;-80
2022/12/23 09:51:35;;;;;;;5.55;2.08;;;;;;;12.11;100.00;98992.03;12169139;19;20010;-80
2022/12/23 09:56:04;;;;;;;4.40;1.90;;;;;;;12.19;100.00;98990.59;12147968;19;20027;-80
2022/12/23 10:00:14;;;;;;;3.45;1.83;;;;;;;12.22;100.00;98988.09;12171393;19;20010;-80
2022/12/23 10:04:35;;;;;;;3.47;2.13;;;;;;;12.22;100.00;98981.75;12168639;19;20030;-80
2022/12/23 10:08:50;;;;;;;5.20;1.80;;;;;;;12.22;100.00;98979.00;12148774;19;20002;-80
2022/12/23 10:12:53;;;;;;;2.35;1.55;;;;;;;12.20;100.00;98978.47;12170720;19;20034;-80
2022/12/23 10:17:04;;;;;;;3.60;1.50;;;;;;;12.16;100.00;98972.66;12153879;19;20031;-82
2022/12/23 10:21:13;;;;;;;4.45;2.00;;;;;;;12.12;100.00;98965.22;12189949;19;20010;-82
2022/12/23 10:25:39;;;;;;;6.18;1.75;;;;;;;12.00;100.00;98971.06;12176539;19;20455;-80
2022/12/23 10:29:41;;;;;;;3.10;1.85;;;;;;;11.99;100.00;98967.47;12146862;19;20007;-79
2022/12/23 10:33:42;;;;;;;2.92;1.55;;;;;;;12.00;100.00;98951.72;12173970;19;20011;-78
2022/12/23 10:37:53;;;;;;;3.05;1.75;;;;;;;11.97;100.00;98942.06;12142791;19;20011;-79
2022/12/23 10:42:07;;;;;;;3.20;1.83;;;;;;;11.93;100.00;98935.47;12167294;19;20018;-79
2022/12/23 10:46:19;;;;;;;3.67;2.10;;;;;;;11.92;100.00;98928.25;12212332;19;20014;-79
2022/12/23 10:50:36;;;;;;;3.35;1.92;;;;;;;11.94;100.00;98928.00;12163160;19;20027;-80
2022/12/23 10:54:42;;;;;;;6.25;2.60;;;;;;;11.88;100.00;98923.59;12172677;19;20007;-81
2022/12/23 10:58:48;;;;;;;4.68;2.20;;;;;;;11.89;100.00;98916.97;12162370;19;20018;-79
2022/12/23 11:03:05;;;;;;;5.53;2.25;;;;;;;11.88;100.00;98904.28;12192279;19;20006;-82
2022/12/23 11:07:11;;;;;;;4.57;2.30;;;;;;;11.89;100.00;98895.69;12182891;19;20003;-80
2022/12/23 11:11:56;;;;;;;3.40;2.03;;;;;;;11.93;100.00;98876.63;12161121;19;20014;-80
2022/12/23 11:16:22;;;;;;;6.30;1.88;;;;;;;11.98;100.00;98871.91;12179493;19;20007;-80
2022/12/23 11:20:24;;;;;;;5.82;2.17;;;;;;;12.04;100.00;98861.69;12158998;19;20431;-80
2022/12/23 11:24:31;;;;;;;5.40;2.35;;;;;;;12.10;100.00;98844.00;12181250;19;20007;-80
2022/12/23 11:28:47;;;;;;;4.05;2.30;;;;;;;12.17;100.00;98827.94;12152746;19;20023;-78
2022/12/23 11:32:50;;;;;;;3.92;1.98;;;;;;;12.18;100.00;98832.34;12176159;19;20003;-79
2022/12/23 11:36:55;;;;;;;3.42;2.03;;;;;;;12.21;100.00;98826.25;12170941;19;19998;-78
2022/12/23 11:41:03;;;;;;;7.82;2.30;;;;;;;12.22;100.00;98816.03;12156662;19;20070;-79
2022/12/23 11:45:06;;;;;;;4.70;3.00;;;;;;;12.18;100.00;98810.25;12182863;19;20015;-83
2022/12/23 11:49:18;;;;;;;6.22;2.17;;;;;;;12.14;100.00;98792.63;12185304;19;20014;-79
2022/12/23 11:53:22;;;;;;;6.45;2.80;;;;;;;12.11;100.00;98804.22;12155187;19;20010;-79
2022/12/23 11:57:41;;;;;;;5.88;2.88;;;;;;;12.06;100.00;98779.41;12183063;19;20326;-79
2022/12/23 12:01:47;;;;;;;5.72;2.90;;;;;;;12.08;100.00;98761.44;12161818;19;20512;-80
2022/12/23 12:05:56;;;;;;;5.60;3.22;;;;;;;12.14;100.00;98755.91;12182976;19;20017;-80
2022/12/23 12:10:00;;;;;;;5.78;3.08;;;;;;;12.22;100.00;98745.03;12182399;19;20010;-81
2022/12/23 12:14:06;;;;;;;5.97;3.05;;;;;;;12.26;100.00;98739.78;12165875;19;20007;-80
2022/12/23 12:18:12;;;;;;;5.00;3.03;;;;;;;12.28;100.00;98732.88;12171904;19;20038;-79
2022/12/23 12:22:29;;;;;;;6.38;3.58;;;;;;;12.32;100.00;98725.66;12172764;19;20011;-78
2022/12/23 12:26:35;;;;;;;7.15;3.03;;;;;;;12.36;100.00;98722.31;12151340;19;20003;-79
2022/12/23 12:30:42;;;;;;;7.25;3.20;;;;;;;12.32;100.00;98713.78;12173679;19;20488;-79
2022/12/23 12:35:07;;;;;;;6.00;3.17;;;;;;;12.32;100.00;98698.03;12157434;19;20011;-80
2022/12/23 12:39:22;;;;;;;6.03;2.90;;;;;;;12.39;100.00;98686.63;12185118;19;20026;-80
2022/12/23 12:43:33;;;;;;;7.30;4.10;;;;;;;12.44;100.00;98681.09;12143916;19;20046;-79
2022/12/23 12:47:44;;;;;;;12.88;4.05;;;;;;;12.39;100.00;98680.28;12154825;19;20018;-78
2022/12/23 12:52:06;;;;;;;5.43;3.03;;;;;;;12.36;100.00;98667.06;12174438;19;20085;-78
2022/12/23 12:56:27;;;;;;;5.40;2.00;;;;;;;12.41;100.00;98658.75;12151554;19;20007;-78
2022/12/23 13:00:44;;;;;;;2.70;1.67;;;;;;;12.43;100.00;98648.19;12173616;19;20385;-78
2022/12/23 13:05:12;;;;;;;2.83;1.50;;;;;;;12.45;100.00;98644.03;12152309;19;20010;-78
2022/12/23 13:09:38;;;;;;;4.70;2.30;;;;;;;12.50;100.00;98648.72;12174372;19;19995;-77
2022/12/23 13:14:01;;;;;;;4.32;2.03;;;;;;;12.49;100.00;98642.38;12153554;19;20026;-78
2022/12/23 13:18:14;;;;;;;5.65;2.67;;;;;;;12.47;100.00;98639.06;12198026;19;20398;-80
2022/12/23 13:22:24;;;;;;;5.10;2.40;;;;;;;12.43;100.00;98639.91;12200793;19;20047;-80
2022/12/23 13:26:36;;;;;;;4.63;2.67;;;;;;;12.40;100.00;98629.44;12182594;19;20023;-79
2022/12/23 13:30:46;;;;;;;7.43;3.47;;;;;;;12.42;100.00;98613.41;12205414;19;20023;-81
2022/12/23 13:35:01;;;;;;;7.72;3.90;;;;;;;12.40;100.00;98607.34;12184497;19;20034;-82
2022/12/23 13:39:29;;;;;;;6.82;3.60;;;;;;;12.44;100.00;98602.91;12205237;19;20019;-79
2022/12/23 13:43:46;;;;;;;9.55;4.10;;;;;;;12.49;100.00;98589.00;12209198;19;20040;-82
2022/12/23 13:48:12;;;;;;;6.68;3.88;;;;;;;12.48;100.00;98574.38;12184253;19;20007;-82
2022/12/23 13:52:38;;;;;;;6.25;3.13;;;;;;;12.49;100.00;98572.44;12211024;19;20007;-82
2022/12/23 13:56:56;;;;;;;3.92;2.38;;;;;;;12.45;100.00;98552.03;12194897;19;20034;-83
2022/12/23 14:01:21;;;;;;;4.03;2.55;;;;;;;12.53;100.00;98559.69;12214149;19;20002;-83
2022/12/23 14:05:26;;;;;;;3.40;2.15;;;;;;;12.54;100.00;98564.91;12189007;19;20011;-82
2022/12/23 14:09:32;;;;;;;5.00;2.47;;;;;;;12.59;100.00;98566.81;12214023;19;20087;-82
2022/12/23 14:13:43;;;;;;;5.85;3.30;;;;;;;12.58;100.00;98556.84;12195854;19;20382;-82
2022/12/23 14:17:59;;;;;;;7.13;3.95;;;;;;;12.60;100.00;98551.06;12216115;19;20015;-79
2022/12/23 14:22:33;;;;;;;10.85;5.85;;;;;;;12.68;100.00;98547.66;12232251;19;20037;-81
2022/12/23 14:27:14;;;;;;;11.20;6.55;;;;;;;12.67;100.00;98540.47;12194232;19;20011;-81
2022/12/23 14:31:38;;;;;;;12.38;6.90;;;;;;;12.64;100.00;98528.06;12230957;19;20006;-81
2022/12/23 14:35:40;;;;;;;10.35;6.22;;;;;;;12.65;100.00;98510.38;12217785;19;20045;-81
2022/12/23 14:39:43;;;;;;;;;;;;;;;12.64;100.00;98517.03;12257038;19;20010;-82
2022/12/23 14:43:44;;;;;;;10.25;6.30;;;;;;;12.67;100.00;98513.66;12227613;19;19907;-81
2022/12/23 14:47:46;;;;;;;12.55;7.25;;;;;;;12.72;100.00;98512.75;12228786;19;20007;-82
2022/12/23 14:51:51;;;;;;;12.43;7.30;;;;;;;12.75;100.00;98506.66;12227556;19;20007;-83
2022/12/23 14:56:14;;;;;;;12.48;7.38;;;;;;;12.77;100.00;98507.19;12197167;19;20019;-83
2022/12/23 15:00:15;;;;;;;11.98;6.95;;;;;;;12.77;100.00;98510.75;12215854;19;20020;-83
2022/12/23 15:04:23;;;;;;;10.57;6.90;;;;;;;12.79;100.00;98507.72;12218693;19;20006;-83
2022/12/23 15:08:32;;;;;;;12.80;7.68;;;;;;;12.82;100.00;98509.88;12196980;19;20003;-85
2022/12/23 15:12:38;;;;;;;11.52;7.60;;;;;;;12.79;100.00;98516.00;12218800;19;20015;-80
2022/12/23 15:16:43;;;;;;;11.90;7.70;;;;;;;12.78;100.00;98509.63;12194293;19;20006;-80
2022/12/23 15:21:08;;;;;;;13.35;8.70;;;;;;;12.85;100.00;98508.44;12218349;19;20117;-82
2022/12/23 15:25:27;;;;;;;13.63;8.65;;;;;;;12.85;100.00;98516.75;12216059;19;20002;-81
2022/12/23 15:29:29;;;;;;;13.30;9.13;;;;;;;12.92;100.00;98522.75;12198908;19;20046;-82
2022/12/23 15:33:35;;;;;;;10.23;7.03;;;;;;;12.89;100.00;98526.94;12213772;19;20050;-79
2022/12/23 15:37:59;;;;;;;8.68;5.53;;;;;;;12.91;100.00;98541.28;12196501;19;20006;-80
2022/12/23 15:42:01;;;;;;;7.63;5.25;;;;;;;12.93;100.00;98541.78;12219095;19;20039;-80
2022/12/23 15:46:15;;;;;;;6.73;4.30;;;;;;;12.94;100.00;98546.22;12255785;19;20042;-79
2022/12/23 15:50:19;;;;;;;7.95;4.00;;;;;;;13.02;100.00;98546.66;12228158;19;20007;-81
2022/12/23 15:54:35;;;;;;;5.70;3.22;;;;;;;13.03;100.00;98538.09;12245090;19;20010;-81
2022/12/23 15:58:41;;;;;;;6.03;3.50;;;;;;;13.05;100.00;98538.59;12219134;19;19999;-81
2022/12/23 16:02:43;;;;;;;6.20;3.58;;;;;;;13.09;100.00;98539.66;12234378;19;20579;-82
2022/12/23 16:07:03;;;;;;;7.32;3.72;;;;;;;13.10;100.00;98533.00;12226423;19;20462;-83
2022/12/23 16:11:14;;;;;;;7.70;4.40;;;;;;;13.12;100.00;98543.78;12195526;19;20091;-81
2022/12/23 16:15:28;;;;;;;7.85;3.47;;;;;;;13.13;100.00;98543.47;12215667;19;20413;-81
2022/12/23 16:19:45;;;;;;;7.93;3.80;;;;;;;13.19;100.00;98533.16;12215500;19;20637;-82
2022/12/23 16:23:51;;;;;;;11.93;6.82;;;;;;;13.25;100.00;98540.28;12183530;19;20500;-80
2022/12/23 16:27:57;;;;;;;11.35;6.72;;;;;;;13.20;100.00;98530.09;12211230;19;20352;-80
2022/12/23 16:31:59;;;;;;;11.52;7.25;;;;;;;13.27;100.00;98520.66;12193761;19;20129;-85
2022/12/23 16:36:15;;;;;;;12.40;7.85;;;;;;;13.25;100.00;98533.91;12210618;19;20014;-81
2022/12/23 16:40:18;;;;;;;10.05;6.72;;;;;;;13.25;100.00;98544.97;12204679;19;20021;-83
2022/12/23 16:44:20;;;;;;;9.23;3.90;;;;;;;13.21;100.00;98545.56;12182857;19;20709;-82
2022/12/23 16:48:35;;;;;;;6.05;3.90;;;;;;;13.23;100.00;98542.50;12206964;19;20028;-80
2022/12/23 16:52:38;;;;;;;9.68;4.22;;;;;;;13.29;100.00;98534.97;12184984;19;20007;-80
2022/12/23 16:56:39;;;;;;;8.38;4.88;;;;;;;13.27;100.00;98529.75;12212110;19;20016;-81
2022/12/23 17:00:41;;;;;;;9.05;5.55;;;;;;;13.29;100.00;98529.44;12208917;19;20480;-80
2022/12/23 17:04:43;;;;;;;13.00;6.75;;;;;;;13.28;100.00;98531.41;12194133;19;20099;-80
2022/12/23 17:08:45;;;;;;;10.20;6.15;;;;;;;13.27;100.00;98532.53;12205534;19;19999;-80
2022/12/23 17:12:48;;;;;;;8.87;5.67;;;;;;;13.20;100.00;98512.66;12209816;19;20002;-80
2022/12/23 17:16:51;;;;;;;7.30;4.05;;;;;;;13.23;100.00;98570.97;12189056;19;20496;-81
2022/12/23 17:20:53;;;;;;;7.72;2.95;;;;;;;13.26;100.00;98607.50;12217467;19;20003;-84
2022/12/23 17:24:57;;;;;;;3.28;1.35;;;;;;;13.03;100.00;98614.66;12209989;19;20026;-82
2022/12/23 17:28:58;;;;;;;2.67;0.88;;;;;;;12.68;100.00;98613.97;12191901;19;20011;-84
2022/12/23 17:33:00;;;;;;;1.15;0.70;;;;;;;12.55;100.00;98593.38;12205238;19;20002;-81
2022/12/23 17:37:11;;;;;;;5.03;1.40;;;;;;;12.57;100.00;98621.53;12201256;19;20014;-81
2022/12/23 17:41:27;;;;;;;5.13;1.90;;;;;;;12.67;100.00;98596.59;12181906;19;20078;-79
2022/12/23 17:45:29;;;;;;;4.95;2.90;;;;;;;12.72;100.00;98615.84;12201265;19;20090;-79
2022/12/23 17:49:31;;;;;;;4.78;3.13;;;;;;;12.76;100.00;98622.47;12202856;19;20026;-80
2022/12/23 17:53:33;;;;;;;7.35;4.13;;;;;;;12.83;100.00;98632.34;12179571;19;20014;-79
2022/12/23 17:57:34;;;;;;;5.90;3.38;;;;;;;12.87;100.00;98636.16;12196538;19;20002;-78
2022/12/23 18:01:37;;;;;;;4.90;3.17;;;;;;;12.90;100.00;98644.69;12174919;19;20052;-78
2022/12/23 18:05:39;;;;;;;6.50;3.10;;;;;;;12.93;100.00;98652.38;12195627;19;20082;-77
2022/12/23 18:09:40;;;;;;;6.60;3.72;;;;;;;12.93;100.00;98657.09;12197390;19;20031;-78
2022/12/23 18:13:42;;;;;;;6.18;3.55;;;;;;;12.88;100.00;98666.28;12174408;19;20010;-78
2022/12/23 18:17:44;;;;;;;8.18;4.20;;;;;;;12.86;100.00;98662.16;12192657;19;20006;-77
2022/12/23 18:21:46;;;;;;;8.52;4.30;;;;;;;12.82;100.00;98663.84;12194163;19;20077;-78
2022/12/23 18:25:48;;;;;;;6.90;4.15;;;;;;;12.77;100.00;98662.78;12164907;19;20021;-78
2022/12/23 18:29:50;;;;;;;6.95;3.75;;;;;;;12.74;100.00;98666.16;12194303;19;20007;-77
2022/12/23 18:33:52;;;;;;;8.75;4.25;;;;;;;12.72;100.00;98673.91;12192177;19;20006;-78
2022/12/23 18:37:54;;;;;;;8.23;3.88;;;;;;;12.65;100.00;98676.19;12169029;19;20405;-78
2022/12/23 18:41:56;;;;;;;9.32;3.90;;;;;;;12.66;100.00;98688.88;12191256;19;20078;-78
2022/12/23 18:45:57;;;;;;;6.03;3.10;;;;;;;12.63;100.00;98691.41;12190037;19;20015;-77
2022/12/23 18:50:01;;;;;;;10.70;3.55;;;;;;;12.60;100.00;98690.03;12172670;19;20022;-78
2022/12/23 18:54:02;;;;;;;4.72;2.72;;;;;;;12.57;100.00;98690.63;12189928;19;20006;-78
2022/12/23 18:58:04;;;;;;;8.38;2.90;;;;;;;12.57;100.00;98693.38;12191834;19;20358;-76
2022/12/23 19:02:08;;;;;;;5.55;3.03;;;;;;;12.59;100.00;98707.75;12167179;19;20006;-77
2022/12/23 19:06:12;;;;;;;5.20;3.00;;;;;;;12.64;100.00;98715.16;12190661;19;20014;-77
2022/12/23 19:10:17;;;;;;;6.10;3.30;;;;;;;12.67;100.00;98723.72;12190075;19;20010;-78
2022/12/23 19:14:19;;;;;;;6.25;2.95;;;;;;;12.67;100.00;98737.53;12169072;19;20017;-77
2022/12/23 19:18:21;;;;;;;7.72;2.88;;;;;;;12.66;100.00;98744.16;12199260;19;20017;-77
2022/12/23 19:22:23;;;;;;;5.93;2.23;;;;;;;12.61;100.00;98724.03;12202412;19;20428;-77